Time;durP1;ratioP1;P1;durP2;ratioP2;P2;SDS_P1;SDS_P2;PMS_P1;PMS_P2;Temp;Humidity;BMP_temperature;BMP_pressure;BME280_temperature;BME280_humidity;BME280_pressure;Samples;Min_cycle;Max_cycle;Signal;HPM_P1;HPM_P2
2023/01/14 00:01:03;;;;;;;12.68;2.35;;;15.70;81.00;;;;;;4186707;28;20052;-63
2023/01/14 00:03:44;;;;;;;13.57;2.80;;;15.70;80.90;;;;;;4203528;27;20047;-63
2023/01/14 00:06:28;;;;;;;13.73;2.70;;;15.80;80.60;;;;;;4210452;27;20047;-63
2023/01/14 00:09:13;;;;;;;11.52;2.70;;;15.80;80.10;;;;;;4201170;27;20047;-63
2023/01/14 00:11:54;;;;;;;16.42;3.17;;;15.80;80.10;;;;;;4193328;28;20392;-63
2023/01/14 00:14:35;;;;;;;11.57;3.03;;;15.80;80.30;;;;;;4193245;28;20400;-63
2023/01/14 00:17:16;;;;;;;14.98;2.80;;;15.80;80.30;;;;;;4176689;28;20044;-63
2023/01/14 00:19:57;;;;;;;12.40;3.08;;;15.80;80.30;;;;;;4176525;28;20056;-63
2023/01/14 00:22:38;;;;;;;14.85;2.92;;;15.80;80.30;;;;;;4176994;28;20466;-63
2023/01/14 00:25:20;;;;;;;15.40;2.63;;;15.80;80.70;;;;;;4176872;28;20067;-63
2023/01/14 00:28:01;;;;;;;16.55;3.15;;;15.80;80.60;;;;;;4178550;28;20052;-62
2023/01/14 00:30:42;;;;;;;13.40;2.67;;;15.90;80.30;;;;;;4192251;28;20150;-62
2023/01/14 00:33:23;;;;;;;11.30;2.40;;;15.90;80.40;;;;;;4192012;28;20604;-63
2023/01/14 00:36:05;;;;;;;13.57;2.95;;;15.90;79.80;;;;;;4193300;28;20047;-63
2023/01/14 00:38:45;;;;;;;12.90;2.60;;;16.00;80.10;;;;;;4193429;28;20044;-63
2023/01/14 00:41:28;;;;;;;8.65;2.60;;;16.00;79.90;;;;;;4193114;28;20060;-62
2023/01/14 00:44:10;;;;;;;9.25;2.42;;;16.00;79.70;;;;;;4193119;28;20055;-63
2023/01/14 00:46:53;;;;;;;9.77;2.20;;;16.00;79.90;;;;;;4191038;28;20075;-63
2023/01/14 00:49:36;;;;;;;13.48;2.97;;;16.00;80.00;;;;;;4190345;28;20048;-62
2023/01/14 00:52:18;;;;;;;8.20;2.13;;;16.00;79.80;;;;;;4176479;28;20055;-63
2023/01/14 00:54:59;;;;;;;12.90;2.45;;;16.00;79.60;;;;;;4176586;28;20055;-62
2023/01/14 00:57:41;;;;;;;13.30;2.92;;;16.00;79.60;;;;;;4175524;28;20056;-63
2023/01/14 01:00:23;;;;;;;16.50;3.55;;;16.00;79.50;;;;;;4176619;28;20056;-63
2023/01/14 01:03:04;;;;;;;12.32;2.33;;;16.00;79.80;;;;;;4185704;28;20051;-63
2023/01/14 01:05:45;;;;;;;8.23;2.30;;;15.90;79.80;;;;;;4192681;28;20186;-63
2023/01/14 01:08:26;;;;;;;8.38;2.45;;;15.90;79.80;;;;;;4191066;28;20106;-63
2023/01/14 01:11:08;;;;;;;15.13;3.07;;;15.80;80.70;;;;;;4192078;28;20399;-63
2023/01/14 01:13:49;;;;;;;;;;;15.80;80.60;;;;;;4191880;28;20056;-63
2023/01/14 01:16:30;;;;;;;7.72;1.85;;;15.80;81.00;;;;;;4192957;28;19973;-63
2023/01/14 01:19:11;;;;;;;10.88;2.65;;;15.90;81.20;;;;;;4192175;28;20149;-63
2023/01/14 01:21:53;;;;;;;16.20;3.42;;;15.90;80.60;;;;;;4192577;28;20047;-64
2023/01/14 01:24:33;;;;;;;15.35;2.72;;;16.00;80.00;;;;;;4192324;28;20506;-63
2023/01/14 01:27:14;;;;;;;9.63;2.65;;;16.00;80.20;;;;;;4192518;28;20185;-63
2023/01/14 01:29:57;;;;;;;10.27;2.47;;;16.00;80.00;;;;;;4185546;28;20052;-63
2023/01/14 01:32:37;;;;;;;13.75;2.75;;;16.00;79.80;;;;;;4192166;28;20054;-63
2023/01/14 01:35:19;;;;;;;13.25;2.55;;;16.00;79.70;;;;;;4192793;28;20503;-63
2023/01/14 01:38:00;;;;;;;7.82;2.40;;;16.00;80.00;;;;;;4192300;28;20055;-63
2023/01/14 01:40:42;;;;;;;16.30;2.63;;;16.00;79.70;;;;;;4192641;28;20080;-62
2023/01/14 01:43:28;;;;;;;12.10;1.90;;;15.90;79.70;;;;;;4175931;28;20068;-62
2023/01/14 01:46:10;;;;;;;7.88;1.83;;;15.90;80.10;;;;;;4175750;28;20056;-63
2023/01/14 01:48:51;;;;;;;12.60;2.67;;;15.90;79.90;;;;;;4185749;28;20533;-63
2023/01/14 01:51:37;;;;;;;9.43;2.55;;;15.90;80.00;;;;;;4192394;28;20048;-63
2023/01/14 01:54:21;;;;;;;10.55;2.58;;;16.00;80.00;;;;;;4191838;28;20051;-63
2023/01/14 01:57:03;;;;;;;11.07;2.65;;;15.90;81.00;;;;;;4192219;28;20044;-62
2023/01/14 01:59:48;;;;;;;13.45;2.75;;;16.00;79.70;;;;;;4177899;28;20494;-62
2023/01/14 02:02:31;;;;;;;11.95;2.75;;;16.00;79.50;;;;;;4179148;28;20056;-62
2023/01/14 02:05:15;;;;;;;16.15;3.08;;;15.90;79.70;;;;;;4182189;28;20055;-62
2023/01/14 02:07:58;;;;;;;14.63;2.83;;;15.90;79.80;;;;;;4194093;28;20052;-63
2023/01/14 02:10:59;;;;;;;7.72;2.10;;;15.90;79.90;;;;;;4195620;28;20121;-62
2023/01/14 02:13:45;;;;;;;;;;;15.90;80.00;;;;;;4194929;28;20117;-62
2023/01/14 02:16:41;;;;;;;13.90;2.33;;;15.90;80.80;;;;;;4195219;28;19927;-62
2023/01/14 02:19:39;;;;;;;12.27;2.45;;;16.00;80.80;;;;;;4193035;28;20514;-63
2023/01/14 02:22:37;;;;;;;11.55;2.88;;;16.00;80.40;;;;;;4193478;28;20097;-62
2023/01/14 02:25:42;;;;;;;9.93;2.42;;;16.00;79.90;;;;;;4193395;28;20063;-63
2023/01/14 02:28:35;;;;;;;13.85;2.28;;;16.00;80.20;;;;;;4192971;28;20074;-63
2023/01/14 02:31:26;;;;;;;13.25;3.47;;;16.00;80.60;;;;;;4177538;28;20056;-62
2023/01/14 02:34:14;;;;;;;10.77;3.20;;;16.00;80.10;;;;;;4180409;28;20060;-63
2023/01/14 02:37:06;;;;;;;14.15;2.22;;;16.00;80.10;;;;;;4177592;28;20051;-62
2023/01/14 02:39:57;;;;;;;14.02;2.95;;;16.10;80.10;;;;;;4160873;28;20048;-63
2023/01/14 02:45:47;;;;;;;11.45;3.28;;;16.00;80.10;;;;;;4193630;28;20071;-63
2023/01/14 02:48:31;;;;;;;17.33;2.95;;;16.00;80.40;;;;;;4193542;28;20392;-62
2023/01/14 02:51:14;;;;;;;10.02;2.83;;;16.00;80.00;;;;;;4194050;28;20450;-63
2023/01/14 02:53:55;;;;;;;11.55;2.55;;;16.10;80.90;;;;;;4193766;28;20257;-63
2023/01/14 02:56:38;;;;;;;14.52;2.80;;;16.10;80.10;;;;;;4180688;28;20070;-63
2023/01/14 02:59:40;;;;;;;;;;;16.10;79.80;;;;;;4194173;28;20558;-63
2023/01/14 03:02:36;;;;;;;11.43;2.83;;;16.10;80.30;;;;;;4192813;28;20073;-63
2023/01/14 03:05:40;;;;;;;12.77;3.10;;;16.10;80.20;;;;;;4186790;28;20182;-63
2023/01/14 03:08:31;;;;;;;8.63;2.47;;;16.10;79.80;;;;;;4192957;28;20064;-62
2023/01/14 03:11:12;;;;;;;13.85;2.53;;;16.10;80.10;;;;;;4192532;28;20056;-63
2023/01/14 03:13:59;;;;;;;15.88;3.33;;;16.10;80.20;;;;;;4195212;28;20055;-62
2023/01/14 03:16:44;;;;;;;11.80;2.75;;;16.10;80.30;;;;;;4165346;28;20068;-63
2023/01/14 03:19:30;;;;;;;12.07;2.28;;;16.10;80.10;;;;;;4177780;28;20574;-63
2023/01/14 03:22:13;;;;;;;12.25;2.65;;;16.10;80.00;;;;;;4208739;27;20132;-63
2023/01/14 03:24:57;;;;;;;12.38;2.90;;;16.10;79.90;;;;;;4190085;28;20051;-63
2023/01/14 03:27:42;;;;;;;10.73;2.30;;;16.10;79.70;;;;;;4193040;28;20051;-63
2023/01/14 03:30:29;;;;;;;15.93;3.50;;;16.10;79.80;;;;;;4192569;28;20051;-63
2023/01/14 03:33:19;;;;;;;13.68;3.83;;;16.00;80.00;;;;;;4192660;28;20055;-63
2023/01/14 03:36:02;;;;;;;14.63;3.20;;;16.00;80.00;;;;;;4176398;28;20052;-63
2023/01/14 03:38:49;;;;;;;15.23;2.97;;;16.00;80.40;;;;;;4176239;28;20155;-63
2023/01/14 03:44:36;;;;;;;14.10;2.88;;;16.00;80.40;;;;;;4198565;27;20513;-62
2023/01/14 03:47:18;;;;;;;10.73;2.70;;;16.00;80.30;;;;;;4210688;27;20133;-62
2023/01/14 03:50:02;;;;;;;14.15;2.50;;;16.00;80.20;;;;;;4210062;27;20121;-62
2023/01/14 03:53:03;;;;;;;13.75;2.83;;;16.00;80.10;;;;;;4193981;28;20056;-63
2023/01/14 03:55:51;;;;;;;;;;;16.00;79.60;;;;;;4193797;28;20132;-63
2023/01/14 03:58:43;;;;;;;11.88;2.67;;;16.00;80.50;;;;;;4179840;28;20389;-63
2023/01/14 04:01:29;;;;;;;10.60;1.98;;;16.00;80.30;;;;;;4192714;28;20077;-63
2023/01/14 04:04:12;;;;;;;11.50;2.38;;;15.90;80.40;;;;;;4193682;28;20051;-63
2023/01/14 04:06:53;;;;;;;20.25;3.17;;;15.90;80.60;;;;;;4194025;28;20202;-63
2023/01/14 04:09:34;;;;;;;15.45;2.97;;;15.90;80.50;;;;;;4193623;28;20051;-63
2023/01/14 04:12:17;;;;;;;10.60;2.28;;;15.90;80.40;;;;;;4193589;28;20051;-63
2023/01/14 04:17:56;;;;;;;13.52;2.63;;;15.90;81.00;;;;;;4193216;28;20113;-62
2023/01/14 04:20:37;;;;;;;12.10;3.00;;;15.90;80.80;;;;;;4180764;28;20429;-62
2023/01/14 04:23:18;;;;;;;7.20;2.03;;;16.00;80.80;;;;;;4193248;28;20055;-63
2023/01/14 04:25:59;;;;;;;16.55;3.17;;;16.00;80.90;;;;;;4192089;28;20123;-63
2023/01/14 04:28:41;;;;;;;15.55;2.97;;;16.00;80.80;;;;;;4193393;28;20518;-62
2023/01/14 04:31:22;;;;;;;11.57;2.42;;;16.00;80.60;;;;;;4193260;28;20098;-63
2023/01/14 04:34:03;;;;;;;7.28;2.33;;;16.00;80.30;;;;;;4193186;28;20538;-63
2023/01/14 04:36:44;;;;;;;11.80;2.75;;;16.00;80.00;;;;;;4192950;28;20055;-63
2023/01/14 04:39:25;;;;;;;15.95;3.47;;;16.00;80.10;;;;;;4192259;28;20051;-63
2023/01/14 04:45:07;;;;;;;18.27;3.03;;;16.00;80.60;;;;;;4174802;28;20052;-63
2023/01/14 04:47:50;;;;;;;11.10;2.63;;;16.00;80.50;;;;;;4176727;28;20047;-63
2023/01/14 04:50:34;;;;;;;11.20;2.78;;;16.00;80.20;;;;;;4176717;28;20159;-63
2023/01/14 04:53:18;;;;;;;15.63;3.53;;;16.00;80.10;;;;;;4179483;28;20470;-63
2023/01/14 04:55:58;;;;;;;13.00;2.72;;;16.00;80.00;;;;;;4192929;28;20059;-63
2023/01/14 04:58:39;;;;;;;15.00;3.17;;;16.00;79.80;;;;;;4192785;28;20059;-63
2023/01/14 05:01:22;;;;;;;9.73;2.50;;;16.00;79.70;;;;;;4191680;28;20498;-62
2023/01/14 05:04:03;;;;;;;12.38;2.58;;;16.00;80.10;;;;;;4192663;28;20109;-63
2023/01/14 05:06:43;;;;;;;17.02;2.78;;;16.00;79.90;;;;;;4192896;28;20060;-63
2023/01/14 05:09:24;;;;;;;12.45;3.00;;;16.00;80.00;;;;;;4191532;28;20059;-63
2023/01/14 05:12:06;;;;;;;9.18;2.15;;;16.00;79.70;;;;;;4192796;28;20059;-63
2023/01/14 05:14:46;;;;;;;10.45;2.10;;;16.00;79.80;;;;;;4176156;28;20044;-63
2023/01/14 05:17:29;;;;;;;7.97;2.17;;;16.00;79.90;;;;;;4178212;28;20586;-63
2023/01/14 05:20:11;;;;;;;14.38;2.70;;;16.00;80.20;;;;;;4192714;28;20400;-63
2023/01/14 05:22:52;;;;;;;14.07;2.95;;;16.00;80.10;;;;;;4191353;28;20079;-63
2023/01/14 05:25:34;;;;;;;9.70;2.45;;;16.00;80.00;;;;;;4192565;28;20178;-63
2023/01/14 05:28:17;;;;;;;11.00;2.13;;;16.00;80.00;;;;;;4192426;28;20051;-63
2023/01/14 05:30:58;;;;;;;9.40;2.33;;;16.00;79.80;;;;;;4192501;28;20621;-63
2023/01/14 05:33:40;;;;;;;9.77;2.28;;;16.00;79.70;;;;;;4191528;28;20501;-63
2023/01/14 05:36:21;;;;;;;11.52;2.70;;;16.00;80.10;;;;;;4192481;28;20099;-63
2023/01/14 05:39:02;;;;;;;15.00;2.45;;;16.00;79.90;;;;;;4191988;28;20602;-63
2023/01/14 05:47:37;;;;;;;12.77;2.45;;;16.00;79.40;;;;;;4175563;28;20502;-63
2023/01/14 05:50:19;;;;;;;13.60;3.03;;;16.00;79.80;;;;;;4175463;28;20499;-62
2023/01/14 05:53:00;;;;;;;11.63;2.95;;;16.00;79.60;;;;;;4183308;28;20043;-63
2023/01/14 05:55:40;;;;;;;9.30;2.40;;;16.00;79.90;;;;;;4192392;28;20056;-62
2023/01/14 05:58:21;;;;;;;10.25;2.40;;;16.00;80.80;;;;;;4192427;28;20491;-62
2023/01/14 06:07:02;;;;;;;12.10;3.05;;;16.00;79.60;;;;;;4192023;28;20123;-62
2023/01/14 06:09:43;;;;;;;9.23;2.85;;;15.90;79.60;;;;;;4192163;28;20055;-62
2023/01/14 06:12:57;;;;;;;10.38;2.55;;;15.90;80.00;;;;;;4191550;28;20055;-62
2023/01/14 06:15:36;;;;;;;10.40;2.50;;;15.90;79.80;;;;;;4192082;28;20086;-62
2023/01/14 06:18:21;;;;;;;10.73;2.30;;;15.90;80.10;;;;;;4192317;28;20047;-63
2023/01/14 06:21:02;;;;;;;13.57;2.75;;;15.80;80.10;;;;;;4191915;28;20051;-62
2023/01/14 06:23:45;;;;;;;12.07;2.90;;;15.80;80.40;;;;;;4175807;28;20056;-62
2023/01/14 06:26:27;;;;;;;15.40;2.83;;;15.80;80.00;;;;;;4175221;28;20055;-63
2023/01/14 06:29:10;;;;;;;8.68;2.28;;;15.80;80.20;;;;;;4175480;28;20048;-62
2023/01/14 06:31:51;;;;;;;11.05;3.17;;;15.80;80.30;;;;;;4188938;28;20094;-62
2023/01/14 06:34:32;;;;;;;10.43;3.03;;;15.80;80.30;;;;;;4192169;28;20054;-61
2023/01/14 06:37:13;;;;;;;10.88;3.25;;;15.80;80.30;;;;;;4192004;28;20067;-62
2023/01/14 06:39:56;;;;;;;7.25;2.47;;;15.80;80.30;;;;;;4192018;28;20186;-63
2023/01/14 06:42:36;;;;;;;18.35;3.25;;;15.80;80.70;;;;;;4183866;28;20606;-63
2023/01/14 06:45:17;;;;;;;7.63;3.00;;;15.80;81.30;;;;;;4192081;28;20185;-63
2023/01/14 06:47:58;;;;;;;12.15;2.97;;;15.90;81.20;;;;;;4195133;28;20392;-63
2023/01/14 06:50:39;;;;;;;20.38;3.85;;;16.00;81.20;;;;;;4194525;28;20190;-63
2023/01/14 06:53:21;;;;;;;11.30;3.00;;;16.10;80.60;;;;;;4194583;28;20109;-63
2023/01/14 06:56:05;;;;;;;16.08;4.18;;;16.10;80.10;;;;;;4194703;28;20490;-63
2023/01/14 06:58:48;;;;;;;11.55;3.33;;;16.20;79.70;;;;;;4194673;28;20063;-63
2023/01/14 07:01:29;;;;;;;10.68;3.28;;;16.30;79.60;;;;;;4193662;28;20458;-63
2023/01/14 07:04:09;;;;;;;16.00;3.85;;;16.30;80.20;;;;;;4193424;28;20047;-63
2023/01/14 07:06:53;;;;;;;17.45;4.60;;;16.30;79.20;;;;;;4194689;28;20051;-63
2023/01/14 07:09:34;;;;;;;16.05;3.83;;;16.30;79.20;;;;;;4194399;28;20059;-62
2023/01/14 07:12:16;;;;;;;14.15;4.03;;;16.40;79.00;;;;;;4178405;28;20077;-62
2023/01/14 07:14:57;;;;;;;15.10;3.97;;;16.40;78.60;;;;;;4178208;28;20052;-63
2023/01/14 07:17:38;;;;;;;19.80;4.63;;;16.50;78.30;;;;;;4194018;28;20055;-62
2023/01/14 07:20:19;;;;;;;17.10;4.30;;;16.50;78.20;;;;;;4194026;28;20126;-62
2023/01/14 07:23:02;;;;;;;17.83;4.53;;;16.50;78.20;;;;;;4194364;28;20101;-62
2023/01/14 07:25:43;;;;;;;18.27;4.28;;;16.50;78.20;;;;;;4194330;28;20055;-62
2023/01/14 07:28:27;;;;;;;16.75;4.05;;;16.50;78.10;;;;;;4194506;28;20079;-62
2023/01/14 07:31:09;;;;;;;14.23;4.70;;;16.60;77.80;;;;;;4194198;28;20051;-62
2023/01/14 07:33:50;;;;;;;17.13;4.20;;;16.60;77.50;;;;;;4194349;28;20056;-64
2023/01/14 07:36:31;;;;;;;17.20;4.22;;;16.60;77.50;;;;;;4194609;28;20109;-64
2023/01/14 07:39:12;;;;;;;21.30;4.72;;;16.60;77.70;;;;;;4192881;28;20054;-63
2023/01/14 07:41:53;;;;;;;17.50;4.83;;;16.60;77.60;;;;;;4177580;28;20064;-63
2023/01/14 07:44:35;;;;;;;18.75;4.35;;;16.60;77.50;;;;;;4177174;28;20302;-63
2023/01/14 07:47:16;;;;;;;18.08;4.72;;;16.60;77.30;;;;;;4177770;28;20102;-63
2023/01/14 07:49:57;;;;;;;18.77;4.85;;;16.60;77.20;;;;;;4200573;27;20128;-63
2023/01/14 07:52:38;;;;;;;14.73;4.22;;;16.60;77.20;;;;;;4210806;27;20046;-64
2023/01/14 07:55:19;;;;;;;15.77;3.67;;;16.60;77.10;;;;;;4201737;27;20055;-63
2023/01/14 07:58:00;;;;;;;19.98;4.35;;;16.60;77.20;;;;;;4193343;28;20063;-64
2023/01/14 08:00:42;;;;;;;16.35;4.63;;;16.50;77.30;;;;;;4193900;28;20052;-63
2023/01/14 08:03:23;;;;;;;16.80;3.47;;;16.50;77.40;;;;;;4193772;28;20059;-63
2023/01/14 08:06:06;;;;;;;14.85;3.60;;;16.50;77.80;;;;;;4194126;28;20122;-63
2023/01/14 08:08:47;;;;;;;13.77;3.80;;;16.50;77.80;;;;;;4177050;28;20152;-63
2023/01/14 08:11:28;;;;;;;17.65;3.85;;;16.60;77.40;;;;;;4176922;28;20056;-63
2023/01/14 08:14:09;;;;;;;15.15;3.85;;;16.60;77.20;;;;;;4173601;28;20376;-63
2023/01/14 08:16:51;;;;;;;22.13;4.88;;;16.60;77.20;;;;;;4179635;28;20055;-63
2023/01/14 08:19:32;;;;;;;15.18;3.80;;;16.60;77.20;;;;;;4180947;28;20109;-63
2023/01/14 08:22:14;;;;;;;14.93;3.38;;;16.60;77.20;;;;;;4180900;28;20055;-63
2023/01/14 08:24:55;;;;;;;13.88;3.58;;;16.50;77.50;;;;;;4181356;28;20408;-63
2023/01/14 08:27:36;;;;;;;16.52;3.60;;;16.50;77.80;;;;;;4177575;28;20095;-64
2023/01/14 08:30:17;;;;;;;13.35;3.83;;;16.40;77.60;;;;;;4184321;28;20447;-63
2023/01/14 08:32:59;;;;;;;17.58;4.53;;;16.30;78.30;;;;;;4179670;28;20174;-63
2023/01/14 08:35:41;;;;;;;16.08;3.85;;;16.40;78.30;;;;;;4180413;28;20101;-63
2023/01/14 08:38:22;;;;;;;14.25;2.90;;;16.40;78.10;;;;;;4182776;28;20067;-63
2023/01/14 08:41:04;;;;;;;13.15;3.72;;;16.40;77.90;;;;;;4178731;28;20190;-63
2023/01/14 08:43:48;;;;;;;17.98;3.88;;;16.40;78.00;;;;;;4182773;28;20059;-63
2023/01/14 08:46:29;;;;;;;14.95;3.30;;;16.40;78.00;;;;;;4184526;28;20059;-63
2023/01/14 08:49:12;;;;;;;16.88;4.55;;;16.30;78.10;;;;;;4181958;28;20133;-63
2023/01/14 08:51:56;;;;;;;9.15;3.45;;;16.20;79.00;;;;;;4184343;28;20056;-67
2023/01/14 08:54:37;;;;;;;18.48;3.55;;;16.20;78.40;;;;;;4174562;28;20103;-63
2023/01/14 08:57:18;;;;;;;17.95;4.85;;;16.10;78.60;;;;;;4186531;28;20517;-64
2023/01/14 09:00:00;;;;;;;16.15;3.95;;;16.00;78.80;;;;;;4179217;28;20075;-64
2023/01/14 09:02:41;;;;;;;14.68;2.90;;;16.00;79.30;;;;;;4173431;28;20468;-64
2023/01/14 09:05:24;;;;;;;16.92;3.97;;;16.10;79.30;;;;;;4173919;28;20059;-64
2023/01/14 09:17:07;;;;;;;13.00;3.13;;;16.30;78.50;;;;;;4181749;28;20094;-64
2023/01/14 09:19:50;;;;;;;11.43;2.87;;;16.30;78.10;;;;;;4188834;28;20403;-64
2023/01/14 09:22:33;;;;;;;9.75;2.97;;;16.40;77.80;;;;;;4185233;28;20043;-64
2023/01/14 09:25:14;;;;;;;13.18;3.08;;;16.40;77.70;;;;;;4178147;28;20056;-64
2023/01/14 09:28:06;;;;;;;11.18;3.10;;;16.40;77.60;;;;;;4187955;28;20058;-63
2023/01/14 09:30:47;;;;;;;9.48;3.22;;;16.30;77.60;;;;;;4189795;28;20052;-63
2023/01/14 09:33:28;;;;;;;10.30;2.95;;;16.40;77.80;;;;;;4174072;28;20063;-63
2023/01/14 09:36:09;;;;;;;12.73;3.13;;;16.40;77.50;;;;;;4176563;28;20488;-62
2023/01/14 09:38:51;;;;;;;12.90;2.58;;;16.40;77.50;;;;;;4185854;28;20044;-63
2023/01/14 09:41:35;;;;;;;12.02;3.00;;;16.40;77.30;;;;;;4189850;28;20059;-63
2023/01/14 09:44:16;;;;;;;9.68;2.58;;;16.40;77.30;;;;;;4174022;28;20503;-63
2023/01/14 09:46:57;;;;;;;9.93;2.83;;;16.40;77.40;;;;;;4190936;28;20056;-63
2023/01/14 09:49:39;;;;;;;11.10;3.20;;;16.40;77.50;;;;;;4176333;28;20067;-64
2023/01/14 09:52:47;;;;;;;14.93;3.38;;;16.30;77.60;;;;;;4174354;28;20459;-63
2023/01/14 09:55:37;;;;;;;13.95;3.22;;;16.30;77.50;;;;;;4174607;28;20056;-64
2023/01/14 09:58:22;;;;;;;12.00;2.88;;;16.30;77.80;;;;;;4173939;28;20071;-63
2023/01/14 10:01:14;;;;;;;9.55;2.60;;;16.20;77.70;;;;;;4177810;28;20059;-63
2023/01/14 10:04:01;;;;;;;7.57;2.83;;;16.20;77.70;;;;;;4174991;28;20097;-62
2023/01/14 10:06:44;;;;;;;8.98;2.78;;;16.10;77.80;;;;;;4175892;28;20049;-63
2023/01/14 10:09:28;;;;;;;8.23;2.55;;;16.10;78.80;;;;;;4180167;28;20051;-63
2023/01/14 10:12:16;;;;;;;8.45;2.28;;;16.10;77.80;;;;;;4174080;28;20201;-63
2023/01/14 10:15:03;;;;;;;6.22;2.00;;;16.20;77.60;;;;;;4173718;28;20051;-63
2023/01/14 10:17:50;;;;;;;7.45;2.03;;;16.30;77.00;;;;;;4173275;28;20527;-63
2023/01/14 10:20:36;;;;;;;7.13;2.30;;;16.30;76.80;;;;;;4179073;28;20071;-63
2023/01/14 10:23:19;;;;;;;4.38;2.35;;;16.40;76.60;;;;;;4176529;28;20408;-63
2023/01/14 10:26:01;;;;;;;8.00;2.13;;;16.50;76.20;;;;;;4180883;28;20166;-63
2023/01/14 10:28:48;;;;;;;3.30;1.27;;;16.70;75.70;;;;;;4182536;28;20056;-62
2023/01/14 10:31:34;;;;;;;6.18;1.92;;;16.80;74.70;;;;;;4177082;28;20056;-63
2023/01/14 10:34:23;;;;;;;4.07;1.90;;;16.90;74.10;;;;;;4176933;28;20056;-62
2023/01/14 10:37:04;;;;;;;4.18;1.67;;;17.00;74.40;;;;;;4177079;28;20052;-62
2023/01/14 10:39:50;;;;;;;4.15;1.35;;;17.10;73.10;;;;;;4178102;28;20063;-63
2023/01/14 10:42:31;;;;;;;2.40;1.45;;;17.10;72.70;;;;;;4177513;28;20063;-63
2023/01/14 10:45:14;;;;;;;3.35;1.15;;;17.20;72.50;;;;;;4183984;28;20063;-62
2023/01/14 10:48:02;;;;;;;3.53;1.40;;;17.10;72.30;;;;;;4184549;28;20064;-64
2023/01/14 10:50:43;;;;;;;4.43;1.52;;;17.10;72.50;;;;;;4176652;28;20731;-64
2023/01/14 10:53:25;;;;;;;2.38;1.17;;;17.00;72.60;;;;;;4176685;28;20622;-63
2023/01/14 10:56:07;;;;;;;4.32;1.10;;;17.00;72.50;;;;;;4190026;28;20048;-63
2023/01/14 10:58:49;;;;;;;4.78;1.40;;;16.90;72.60;;;;;;4181143;28;20048;-63
2023/01/14 11:01:41;;;;;;;4.50;1.58;;;16.80;73.20;;;;;;4175812;28;20056;-63
2023/01/14 11:04:25;;;;;;;3.72;1.30;;;16.80;73.50;;;;;;4191657;28;20430;-63
2023/01/14 11:07:13;;;;;;;3.72;1.08;;;16.80;73.50;;;;;;4177490;28;20114;-63
2023/01/14 11:09:55;;;;;;;3.13;1.13;;;16.80;73.20;;;;;;4188249;28;20059;-63
2023/01/14 11:12:36;;;;;;;2.45;1.45;;;16.80;73.40;;;;;;4179518;28;20191;-63
2023/01/14 11:15:38;;;;;;;2.42;1.13;;;16.90;73.50;;;;;;4178521;28;20056;-63
2023/01/14 11:18:23;;;;;;;;;;;17.00;73.50;;;;;;4176152;28;20503;-64
2023/01/14 11:21:08;;;;;;;3.75;1.27;;;17.00;73.50;;;;;;4181945;28;19936;-64
2023/01/14 11:23:56;;;;;;;4.88;1.52;;;17.10;73.40;;;;;;4182363;28;20048;-63
2023/01/14 11:26:40;;;;;;;2.72;1.30;;;17.10;73.00;;;;;;4175529;28;20133;-63
2023/01/14 11:29:23;;;;;;;2.47;1.10;;;17.20;72.80;;;;;;4184671;28;20055;-63
2023/01/14 11:32:08;;;;;;;1.98;0.82;;;17.30;72.60;;;;;;4185099;28;20101;-63
2023/01/14 11:34:54;;;;;;;2.47;1.25;;;17.40;72.30;;;;;;4190154;28;20549;-63
2023/01/14 11:37:38;;;;;;;3.08;1.27;;;17.50;72.20;;;;;;4182278;28;20514;-63
2023/01/14 11:40:24;;;;;;;1.55;1.10;;;17.50;72.20;;;;;;4187145;28;20093;-63
2023/01/14 11:43:10;;;;;;;1.10;0.95;;;17.40;72.30;;;;;;4190338;28;20056;-63
2023/01/14 11:46:04;;;;;;;2.28;0.93;;;17.40;72.40;;;;;;4184245;28;20055;-63
2023/01/14 11:49:00;;;;;;;2.22;0.88;;;17.30;72.60;;;;;;4191055;28;20076;-63
2023/01/14 11:51:42;;;;;;;3.05;1.20;;;17.20;73.50;;;;;;4175767;28;20140;-63
2023/01/14 11:54:22;;;;;;;3.97;1.10;;;17.20;73.10;;;;;;4184122;28;20522;-63
2023/01/14 11:57:04;;;;;;;1.35;1.25;;;17.10;73.40;;;;;;4158840;28;20099;-63
2023/01/14 11:59:49;;;;;;;2.35;0.82;;;17.00;73.60;;;;;;4179619;28;20146;-63
2023/01/14 12:02:34;;;;;;;2.42;0.90;;;17.00;74.20;;;;;;4175810;28;20056;-63
2023/01/14 12:05:18;;;;;;;2.95;0.93;;;17.00;74.40;;;;;;4178465;28;20175;-63
2023/01/14 12:08:06;;;;;;;2.13;1.23;;;17.00;74.30;;;;;;4174303;28;20056;-63
2023/01/14 12:10:50;;;;;;;2.50;1.20;;;17.10;75.10;;;;;;4187281;28;20048;-63
2023/01/14 12:16:50;;;;;;;2.45;0.75;;;17.10;73.80;;;;;;4180190;28;20561;-63
2023/01/14 12:19:35;;;;;;;1.27;0.90;;;17.20;73.60;;;;;;4174427;28;20190;-64
2023/01/14 12:22:19;;;;;;;2.28;1.23;;;17.20;73.70;;;;;;4181887;28;20065;-63
2023/01/14 12:25:11;;;;;;;1.75;1.15;;;17.10;73.90;;;;;;4181503;28;20407;-64
2023/01/14 12:28:00;;;;;;;1.90;0.80;;;17.20;73.80;;;;;;4179469;28;20088;-64
2023/01/14 12:30:51;;;;;;;1.27;0.80;;;17.30;73.60;;;;;;4189358;28;20544;-64
2023/01/14 12:33:39;;;;;;;1.50;0.57;;;17.30;73.20;;;;;;4176494;28;20056;-65
2023/01/14 12:36:22;;;;;;;1.00;0.60;;;17.30;73.30;;;;;;4178340;28;20558;-64
2023/01/14 12:45:45;;;;;;;1.55;1.10;;;17.10;73.80;;;;;;4177573;28;20064;-64
2023/01/14 12:48:27;;;;;;;1.20;0.60;;;17.10;73.70;;;;;;4189412;28;20063;-64
2023/01/14 12:51:14;;;;;;;2.63;0.63;;;17.10;73.80;;;;;;4174375;28;20179;-65
2023/01/14 12:53:59;;;;;;;2.28;0.68;;;17.10;74.00;;;;;;4174098;28;20060;-63
2023/01/14 12:56:49;;;;;;;0.82;0.50;;;17.00;74.20;;;;;;4173953;28;20130;-63
2023/01/14 12:59:33;;;;;;;0.55;0.55;;;17.00;74.30;;;;;;4173520;28;20141;-64
2023/01/14 13:02:22;;;;;;;1.83;0.75;;;17.00;74.40;;;;;;4190161;28;20479;-64
2023/01/14 13:05:08;;;;;;;1.17;0.57;;;16.90;74.50;;;;;;4189082;28;20531;-64
2023/01/14 13:07:52;;;;;;;0.60;0.60;;;16.90;74.80;;;;;;4189899;28;20054;-64
2023/01/14 13:10:35;;;;;;;1.75;0.70;;;16.90;74.90;;;;;;4176991;28;20667;-65
2023/01/14 13:13:23;;;;;;;1.25;0.55;;;16.90;74.70;;;;;;4184877;28;20059;-64
2023/01/14 13:16:32;;;;;;;1.15;0.57;;;16.90;74.80;;;;;;4174272;28;20495;-64
2023/01/14 13:19:36;;;;;;;0.95;0.52;;;16.90;75.20;;;;;;4178482;28;20121;-63
2023/01/14 13:22:43;;;;;;;0.82;0.50;;;16.90;74.90;;;;;;4181792;28;20047;-63
2023/01/14 13:25:43;;;;;;;1.65;1.05;;;16.90;74.80;;;;;;4173418;28;20833;-63
2023/01/14 13:28:54;;;;;;;0.85;0.60;;;16.90;74.60;;;;;;4174512;28;20052;-63
2023/01/14 13:31:37;;;;;;;0.60;0.40;;;16.90;74.80;;;;;;4173475;28;20079;-63
2023/01/14 13:35:00;;;;;;;0.77;0.60;;;16.80;75.00;;;;;;4178416;28;20511;-64
2023/01/14 13:37:47;;;;;;;1.23;0.60;;;16.80;75.30;;;;;;4181215;28;20135;-63
2023/01/14 13:40:32;;;;;;;0.30;0.30;;;16.80;75.70;;;;;;4180874;28;20083;-64
2023/01/14 13:43:22;;;;;;;0.40;0.35;;;16.80;75.50;;;;;;4174061;28;20651;-63
2023/01/14 13:46:07;;;;;;;0.32;0.30;;;16.90;75.20;;;;;;4180061;28;20051;-64
2023/01/14 13:48:54;;;;;;;0.60;0.30;;;16.90;75.00;;;;;;4175648;28;20048;-64
2023/01/14 13:51:40;;;;;;;0.85;0.60;;;16.90;75.00;;;;;;4178410;28;20708;-63
2023/01/14 13:54:26;;;;;;;0.98;0.30;;;16.90;75.00;;;;;;4180570;28;20648;-63
2023/01/14 13:57:22;;;;;;;1.13;0.60;;;16.90;75.10;;;;;;4185015;28;20427;-63
2023/01/14 14:00:07;;;;;;;1.25;0.55;;;16.80;75.10;;;;;;4178885;28;20081;-63
2023/01/14 14:02:50;;;;;;;3.60;0.50;;;16.80;75.40;;;;;;4186264;28;20047;-63
2023/01/14 14:05:33;;;;;;;1.45;0.47;;;16.80;75.60;;;;;;4187916;28;20502;-63
2023/01/14 14:08:27;;;;;;;0.40;0.40;;;16.70;75.70;;;;;;4174174;28;21002;-63
2023/01/14 14:11:12;;;;;;;0.50;0.50;;;16.70;75.80;;;;;;4187337;28;20056;-63
2023/01/14 14:14:07;;;;;;;1.05;0.80;;;16.60;76.00;;;;;;4154248;28;20561;-62
2023/01/14 14:16:54;;;;;;;0.38;0.35;;;16.70;76.10;;;;;;4180305;28;20086;-63
2023/01/14 14:19:45;;;;;;;0.38;0.38;;;16.70;75.90;;;;;;4177761;28;20621;-63
2023/01/14 14:22:42;;;;;;;0.32;0.30;;;16.80;75.60;;;;;;4173892;28;20191;-63
2023/01/14 14:25:34;;;;;;;0.22;0.22;;;16.80;75.40;;;;;;4183925;28;20056;-64
2023/01/14 14:28:20;;;;;;;0.50;0.40;;;16.80;75.50;;;;;;4187742;28;20070;-64
2023/01/14 14:31:05;;;;;;;0.45;0.45;;;16.70;75.80;;;;;;4188455;28;20064;-64
2023/01/14 14:33:47;;;;;;;0.30;0.30;;;16.80;75.90;;;;;;4173826;28;20599;-64
2023/01/14 14:36:28;;;;;;;0.40;0.40;;;16.80;75.60;;;;;;4183005;28;20063;-63
2023/01/14 14:39:24;;;;;;;0.65;0.40;;;16.90;75.60;;;;;;4178859;28;20178;-63
2023/01/14 14:42:13;;;;;;;0.65;0.30;;;16.80;75.60;;;;;;4185409;28;20056;-63
2023/01/14 14:44:57;;;;;;;0.38;0.38;;;16.80;75.80;;;;;;4188857;28;20054;-64
2023/01/14 14:47:43;;;;;;;1.25;0.40;;;16.80;75.90;;;;;;4188865;28;20051;-64
2023/01/14 14:50:30;;;;;;;0.38;0.38;;;16.90;75.80;;;;;;4180889;28;20055;-64
2023/01/14 14:53:27;;;;;;;0.43;0.40;;;16.90;75.60;;;;;;4173416;28;20059;-63
2023/01/14 14:56:15;;;;;;;1.33;1.13;;;16.90;75.50;;;;;;4172566;28;20055;-63